Wetterdaten: Woche 05.06.23 - 11.06.23 (KW23)
Datum Zeit Temp. I. Temp. A. Feuchte I. Feuchte A. Luftdruck Regen Wind Richtung Sonnenschein Solar Taupunkt Windchill Windböen
05.06.2023 00:00 21,5 °C 8,9 °C 52 % 84 % 1021,3 hPa 0,0 l/m² 0,0 km/h (0 Bft) NO 0,00 h 0 W/m² 6,3 °C 8,9 °C 0,0 km/h (0 Bft)
05.06.2023 01:00 21,4 °C 8,1 °C 52 % 88 % 1021,3 hPa 0,0 l/m² 0,0 km/h (0 Bft) NO 0,00 h 0 W/m² 6,2 °C 8,1 °C 0,0 km/h (0 Bft)
05.06.2023 02:00 21,3 °C 7,1 °C 52 % 89 % 1021,1 hPa 0,0 l/m² 0,0 km/h (0 Bft) NO 0,00 h 0 W/m² 5,4 °C 7,1 °C 0,0 km/h (0 Bft)
05.06.2023 03:00 21,3 °C 6,3 °C 52 % 88 % 1021,0 hPa 0,0 l/m² 0,3 km/h (0 Bft) NO 0,00 h 0 W/m² 4,5 °C 6,3 °C 0,9 km/h (0 Bft)
05.06.2023 04:00 21,2 °C 5,0 °C 52 % 88 % 1020,9 hPa 0,0 l/m² 0,8 km/h (0 Bft) W 0,00 h 0 W/m² 3,2 °C 5,0 °C 1,5 km/h (1 Bft)
05.06.2023 05:00 21,2 °C 5,7 °C 51 % 89 % 1021,0 hPa 0,0 l/m² 1,4 km/h (1 Bft) W-SW 0,00 h 22 W/m² 4,0 °C 5,7 °C 2,7 km/h (1 Bft)
05.06.2023 06:00 21,1 °C 7,3 °C 51 % 88 % 1021,0 hPa 0,0 l/m² 3,1 km/h (1 Bft) W-SW 0,93 h 106 W/m² 5,4 °C 7,3 °C 5,3 km/h (1 Bft)
05.06.2023 07:00 21,2 °C 11,9 °C 52 % 76 % 1021,1 hPa 0,0 l/m² 1,5 km/h (1 Bft) W 1,02 h 238 W/m² 7,7 °C 11,9 °C 4,1 km/h (1 Bft)
05.06.2023 08:00 21,2 °C 15,8 °C 51 % 63 % 1021,3 hPa 0,0 l/m² 3,2 km/h (1 Bft) W 1,00 h 392 W/m² 8,7 °C 15,8 °C 6,7 km/h (2 Bft)
05.06.2023 09:00 21,2 °C 19,0 °C 51 % 52 % 1021,2 hPa 0,0 l/m² 5,3 km/h (1 Bft) N-NW 0,98 h 619 W/m² 8,9 °C 19,0 °C 9,9 km/h (2 Bft)
05.06.2023 10:00 21,4 °C 21,7 °C 50 % 46 % 1021,0 hPa 0,0 l/m² 6,3 km/h (2 Bft) NO 1,00 h 723 W/m² 9,5 °C 21,5 °C 11,5 km/h (2 Bft)
05.06.2023 11:00 21,6 °C 22,4 °C 50 % 42 % 1020,8 hPa 0,0 l/m² 8,6 km/h (2 Bft) NO 1,00 h 602 W/m² 8,9 °C 21,7 °C 14,8 km/h (3 Bft)
05.06.2023 12:00 21,6 °C 24,2 °C 50 % 34 % 1020,3 hPa 0,0 l/m² 10,6 km/h (2 Bft) NO 1,00 h 901 W/m² 7,4 °C 23,2 °C 17,0 km/h (3 Bft)
05.06.2023 13:00 21,6 °C 25,1 °C 50 % 33 % 1020,0 hPa 0,0 l/m² 10,4 km/h (2 Bft) O 1,00 h 772 W/m² 7,8 °C 24,2 °C 16,8 km/h (3 Bft)
05.06.2023 14:00 21,7 °C 25,2 °C 50 % 33 % 1019,6 hPa 0,0 l/m² 7,3 km/h (2 Bft) O 1,00 h 823 W/m² 7,8 °C 24,9 °C 12,8 km/h (3 Bft)
05.06.2023 15:00 21,7 °C 26,0 °C 50 % 31 % 1018,8 hPa 0,0 l/m² 6,9 km/h (2 Bft) O 1,02 h 782 W/m² 7,5 °C 25,7 °C 13,0 km/h (3 Bft)
05.06.2023 16:00 21,7 °C 26,4 °C 50 % 30 % 1018,3 hPa 0,0 l/m² 7,8 km/h (2 Bft) NO 1,00 h 732 W/m² 7,2 °C 26,0 °C 14,2 km/h (3 Bft)
05.06.2023 17:00 21,7 °C 24,8 °C 50 % 33 % 1018,1 hPa 0,0 l/m² 5,6 km/h (2 Bft) O 1,00 h 331 W/m² 7,4 °C 24,6 °C 9,9 km/h (2 Bft)
05.06.2023 18:00 21,7 °C 25,0 °C 46 % 30 % 1017,6 hPa 0,0 l/m² 6,6 km/h (2 Bft) N-NW 0,98 h 261 W/m² 6,2 °C 24,7 °C 12,3 km/h (2 Bft)
05.06.2023 19:00 21,7 °C 24,3 °C 44 % 33 % 1017,3 hPa 0,0 l/m² 6,1 km/h (2 Bft) N 1,00 h 115 W/m² 7,1 °C 24,1 °C 10,1 km/h (2 Bft)
05.06.2023 20:00 21,7 °C 22,8 °C 45 % 36 % 1017,3 hPa 0,0 l/m² 4,5 km/h (1 Bft) NO 0,45 h 46 W/m² 7,2 °C 22,8 °C 7,8 km/h (2 Bft)
05.06.2023 21:00 21,8 °C 20,9 °C 47 % 41 % 1017,4 hPa 0,0 l/m² 3,5 km/h (1 Bft) N-NO 0,00 h 9 W/m² 7,0 °C 20,9 °C 5,8 km/h (2 Bft)
05.06.2023 22:00 21,7 °C 19,9 °C 48 % 43 % 1017,6 hPa 0,0 l/m² 4,0 km/h (1 Bft) N-NO 0,00 h 0 W/m² 7,0 °C 19,9 °C 7,0 km/h (2 Bft)
05.06.2023 23:00 21,7 °C 18,1 °C 49 % 52 % 1017,8 hPa 0,0 l/m² 1,8 km/h (1 Bft) O-NO 0,00 h 0 W/m² 7,9 °C 18,1 °C 3,8 km/h (1 Bft)
06.06.2023 00:00 21,6 °C 15,5 °C 50 % 65 % 1018,1 hPa 0,0 l/m² 2,9 km/h (1 Bft) O-NO 0,00 h 0 W/m² 8,9 °C 15,5 °C 5,0 km/h (1 Bft)
06.06.2023 01:00 21,6 °C 14,2 °C 50 % 74 % 1018,0 hPa 0,0 l/m² 0,6 km/h (0 Bft) NO 0,00 h 0 W/m² 9,7 °C 14,2 °C 1,3 km/h (1 Bft)
06.06.2023 02:00 21,6 °C 13,7 °C 50 % 79 % 1018,2 hPa 0,0 l/m² 1,3 km/h (1 Bft) O-NO 0,00 h 0 W/m² 10,2 °C 13,7 °C 2,3 km/h (1 Bft)
06.06.2023 03:00 21,5 °C 13,2 °C 51 % 83 % 1018,2 hPa 0,0 l/m² 0,1 km/h (0 Bft) O-NO 0,00 h 0 W/m² 10,4 °C 13,2 °C 0,4 km/h (0 Bft)
06.06.2023 04:00 21,5 °C 12,9 °C 51 % 84 % 1018,5 hPa 0,0 l/m² 0,6 km/h (0 Bft) O-NO 0,00 h 0 W/m² 10,2 °C 12,9 °C 1,1 km/h (1 Bft)
06.06.2023 05:00 21,5 °C 12,2 °C 51 % 87 % 1018,7 hPa 0,0 l/m² 0,0 km/h (0 Bft) S-SW 0,00 h 9 W/m² 10,1 °C 12,2 °C 0,0 km/h (0 Bft)
06.06.2023 06:00 21,5 °C 12,8 °C 52 % 85 % 1018,9 hPa 0,0 l/m² 0,1 km/h (0 Bft) S-SW 0,00 h 25 W/m² 10,4 °C 12,8 °C 0,4 km/h (0 Bft)
06.06.2023 07:00 21,4 °C 12,8 °C 52 % 88 % 1019,1 hPa 0,0 l/m² 1,1 km/h (1 Bft) S-SW 0,00 h 23 W/m² 10,9 °C 12,8 °C 2,3 km/h (1 Bft)
06.06.2023 08:00 21,3 °C 13,2 °C 52 % 91 % 1019,5 hPa 0,4 l/m² 1,2 km/h (1 Bft) O-SO 0,42 h 50 W/m² 11,8 °C 13,2 °C 2,4 km/h (1 Bft)
06.06.2023 09:00 21,3 °C 13,8 °C 52 % 93 % 1019,7 hPa 1,2 l/m² 0,4 km/h (0 Bft) N 0,77 h 91 W/m² 12,6 °C 13,8 °C 1,3 km/h (1 Bft)
06.06.2023 10:00 21,3 °C 14,8 °C 51 % 91 % 1019,4 hPa 0,2 l/m² 1,7 km/h (1 Bft) W 1,05 h 189 W/m² 13,4 °C 14,8 °C 4,8 km/h (1 Bft)
06.06.2023 11:00 21,4 °C 16,1 °C 51 % 88 % 1019,0 hPa 0,0 l/m² 5,4 km/h (2 Bft) NW 1,00 h 228 W/m² 14,1 °C 15,7 °C 11,5 km/h (2 Bft)
06.06.2023 12:00 21,5 °C 17,4 °C 51 % 83 % 1019,1 hPa 0,0 l/m² 3,2 km/h (1 Bft) N-NO 1,00 h 298 W/m² 14,5 °C 17,4 °C 6,3 km/h (2 Bft)
06.06.2023 13:00 21,6 °C 19,0 °C 51 % 73 % 1019,0 hPa 0,0 l/m² 5,4 km/h (1 Bft) N-NW 1,02 h 373 W/m² 14,1 °C 18,9 °C 9,1 km/h (2 Bft)
06.06.2023 14:00 21,7 °C 20,6 °C 51 % 65 % 1018,7 hPa 0,0 l/m² 3,1 km/h (1 Bft) NW 1,00 h 385 W/m² 13,8 °C 20,6 °C 6,8 km/h (2 Bft)
06.06.2023 15:00 21,7 °C 20,4 °C 51 % 70 % 1018,5 hPa 0,0 l/m² 5,1 km/h (1 Bft) S 0,98 h 322 W/m² 14,8 °C 20,3 °C 7,7 km/h (2 Bft)
06.06.2023 16:00 21,7 °C 21,2 °C 51 % 67 % 1018,1 hPa 0,0 l/m² 3,7 km/h (1 Bft) S-SW 1,00 h 323 W/m² 14,8 °C 21,2 °C 6,2 km/h (2 Bft)
06.06.2023 17:00 21,7 °C 21,0 °C 52 % 65 % 1017,9 hPa 0,0 l/m² 0,7 km/h (0 Bft) S 1,02 h 194 W/m² 14,2 °C 21,0 °C 1,5 km/h (1 Bft)
06.06.2023 18:00 21,7 °C 21,1 °C 52 % 65 % 1017,7 hPa 0,0 l/m² 1,2 km/h (1 Bft) S 0,92 h 150 W/m² 14,2 °C 21,1 °C 2,1 km/h (1 Bft)
06.06.2023 19:00 21,6 °C 19,7 °C 52 % 73 % 1018,0 hPa 0,0 l/m² 5,0 km/h (1 Bft) O 0,23 h 39 W/m² 14,7 °C 19,5 °C 7,3 km/h (2 Bft)
06.06.2023 20:00 21,5 °C 18,2 °C 52 % 82 % 1018,2 hPa 0,0 l/m² 3,8 km/h (1 Bft) O-NO 0,00 h 15 W/m² 15,0 °C 18,2 °C 6,0 km/h (2 Bft)
06.06.2023 21:00 21,5 °C 17,0 °C 53 % 89 % 1018,5 hPa 0,0 l/m² 0,2 km/h (0 Bft) O-SO 0,00 h 0 W/m² 15,2 °C 17,0 °C 0,6 km/h (0 Bft)
06.06.2023 22:00 21,3 °C 16,4 °C 54 % 92 % 1018,9 hPa 0,4 l/m² 0,1 km/h (0 Bft) N 0,00 h 0 W/m² 15,1 °C 16,4 °C 0,2 km/h (0 Bft)
06.06.2023 23:00 21,2 °C 15,6 °C 54 % 94 % 1019,0 hPa 0,0 l/m² 0,0 km/h (0 Bft) N 0,00 h 0 W/m² 14,6 °C 15,6 °C 0,0 km/h (0 Bft)
07.06.2023 00:00 21,1 °C 14,8 °C 54 % 95 % 1019,0 hPa 0,0 l/m² 0,0 km/h (0 Bft) N 0,00 h 0 W/m² 13,9 °C 14,8 °C 0,0 km/h (0 Bft)
07.06.2023 01:00 21,0 °C 15,1 °C 54 % 95 % 1018,9 hPa 0,0 l/m² 0,0 km/h (0 Bft) N 0,00 h 0 W/m² 14,3 °C 15,1 °C 0,0 km/h (0 Bft)
07.06.2023 02:00 20,9 °C 15,0 °C 54 % 96 % 1018,8 hPa 0,0 l/m² 0,3 km/h (0 Bft) N 0,00 h 0 W/m² 14,4 °C 15,0 °C 0,9 km/h (0 Bft)
07.06.2023 03:00 20,9 °C 14,5 °C 55 % 96 % 1018,8 hPa 0,0 l/m² 0,0 km/h (0 Bft) N 0,00 h 0 W/m² 13,8 °C 14,5 °C 0,0 km/h (0 Bft)
07.06.2023 04:00 20,9 °C 14,8 °C 55 % 96 % 1018,6 hPa 0,0 l/m² 1,2 km/h (1 Bft) N 0,00 h 5 W/m² 14,1 °C 14,8 °C 2,7 km/h (1 Bft)
07.06.2023 05:00 20,8 °C 14,8 °C 55 % 95 % 1018,6 hPa 0,0 l/m² 1,1 km/h (1 Bft) W-SW 0,00 h 29 W/m² 14,0 °C 14,8 °C 2,1 km/h (1 Bft)
07.06.2023 06:00 20,8 °C 15,2 °C 56 % 95 % 1018,6 hPa 0,0 l/m² 1,4 km/h (1 Bft) N 0,45 h 46 W/m² 14,4 °C 15,2 °C 2,7 km/h (1 Bft)
07.06.2023 07:00 20,8 °C 16,1 °C 56 % 94 % 1018,6 hPa 0,0 l/m² 3,4 km/h (1 Bft) NW 1,00 h 110 W/m² 15,1 °C 16,1 °C 6,4 km/h (2 Bft)
07.06.2023 08:00 21,1 °C 17,7 °C 55 % 86 % 1018,9 hPa 0,0 l/m² 3,8 km/h (1 Bft) NW 0,98 h 167 W/m² 15,3 °C 17,7 °C 6,9 km/h (2 Bft)
07.06.2023 09:00 21,2 °C 18,1 °C 55 % 81 % 1019,2 hPa 0,0 l/m² 2,3 km/h (1 Bft) NW 1,00 h 137 W/m² 14,8 °C 18,1 °C 4,7 km/h (1 Bft)
07.06.2023 10:00 21,3 °C 18,9 °C 55 % 78 % 1019,3 hPa 0,0 l/m² 2,9 km/h (1 Bft) W 1,02 h 272 W/m² 14,9 °C 18,9 °C 6,2 km/h (2 Bft)
07.06.2023 11:00 21,4 °C 20,5 °C 54 % 67 % 1019,2 hPa 0,0 l/m² 4,8 km/h (1 Bft) NW 1,00 h 349 W/m² 14,1 °C 20,4 °C 8,7 km/h (2 Bft)
07.06.2023 12:00 21,7 °C 22,5 °C 54 % 58 % 1018,9 hPa 0,0 l/m² 6,5 km/h (2 Bft) N-NW 1,00 h 813 W/m² 13,8 °C 22,2 °C 10,8 km/h (2 Bft)
07.06.2023 13:00 22,0 °C 24,5 °C 53 % 52 % 1018,4 hPa 0,0 l/m² 7,1 km/h (2 Bft) N 1,00 h 842 W/m² 13,9 °C 24,1 °C 12,0 km/h (2 Bft)
07.06.2023 14:00 22,3 °C 25,7 °C 54 % 48 % 1017,9 hPa 0,0 l/m² 7,9 km/h (2 Bft) N-NW 1,00 h 833 W/m² 13,8 °C 25,3 °C 13,4 km/h (3 Bft)
07.06.2023 15:00 22,5 °C 26,2 °C 53 % 47 % 1017,7 hPa 0,0 l/m² 5,2 km/h (1 Bft) N-NW 1,00 h 661 W/m² 14,0 °C 26,0 °C 9,4 km/h (2 Bft)
07.06.2023 16:00 22,3 °C 25,5 °C 54 % 48 % 1017,1 hPa 0,0 l/m² 7,6 km/h (2 Bft) N-NW 1,00 h 334 W/m² 13,6 °C 25,2 °C 12,1 km/h (2 Bft)
07.06.2023 17:00 22,3 °C 25,2 °C 54 % 48 % 1017,0 hPa 0,0 l/m² 6,2 km/h (2 Bft) N-NW 1,00 h 278 W/m² 13,4 °C 25,0 °C 9,3 km/h (2 Bft)
07.06.2023 18:00 22,2 °C 23,7 °C 54 % 57 % 1017,2 hPa 0,2 l/m² 8,8 km/h (2 Bft) W-NW 0,72 h 105 W/m² 14,3 °C 22,7 °C 13,7 km/h (3 Bft)
07.06.2023 19:00 22,1 °C 18,0 °C 56 % 86 % 1017,6 hPa 1,6 l/m² 4,8 km/h (1 Bft) W-SW 0,00 h 15 W/m² 15,7 °C 17,7 °C 7,4 km/h (2 Bft)
07.06.2023 20:00 22,2 °C 17,3 °C 59 % 91 % 1017,6 hPa 0,2 l/m² 0,8 km/h (0 Bft) W-SW 0,00 h 14 W/m² 15,9 °C 17,3 °C 1,8 km/h (1 Bft)
07.06.2023 21:00 22,3 °C 17,1 °C 59 % 93 % 1018,0 hPa 0,2 l/m² 1,4 km/h (1 Bft) SW 0,00 h 0 W/m² 15,9 °C 17,1 °C 2,5 km/h (1 Bft)
07.06.2023 22:00 22,3 °C 16,7 °C 59 % 93 % 1017,9 hPa 0,0 l/m² 1,0 km/h (0 Bft) W-SW 0,00 h 0 W/m² 15,6 °C 16,7 °C 2,0 km/h (1 Bft)
07.06.2023 23:00 22,1 °C 16,3 °C 58 % 92 % 1017,6 hPa 0,0 l/m² 2,4 km/h (1 Bft) W-SW 0,00 h 0 W/m² 15,1 °C 16,3 °C 4,1 km/h (1 Bft)
08.06.2023 00:00 22,0 °C 16,1 °C 58 % 91 % 1017,2 hPa 0,0 l/m² 0,9 km/h (0 Bft) W 0,00 h 0 W/m² 14,7 °C 16,1 °C 2,3 km/h (1 Bft)
08.06.2023 01:00 21,9 °C 16,3 °C 58 % 90 % 1016,8 hPa 0,0 l/m² 4,0 km/h (1 Bft) NW 0,00 h 0 W/m² 14,7 °C 16,2 °C 7,2 km/h (2 Bft)
08.06.2023 02:00 21,8 °C 16,1 °C 57 % 91 % 1016,9 hPa 0,0 l/m² 2,2 km/h (1 Bft) S 0,00 h 0 W/m² 14,6 °C 16,1 °C 3,8 km/h (1 Bft)
08.06.2023 03:00 21,8 °C 16,2 °C 57 % 90 % 1017,3 hPa 0,0 l/m² 2,6 km/h (1 Bft) S-SO 0,00 h 0 W/m² 14,6 °C 16,1 °C 4,6 km/h (1 Bft)
08.06.2023 04:00 21,8 °C 15,7 °C 57 % 93 % 1017,1 hPa 0,2 l/m² 0,7 km/h (0 Bft) W 0,00 h 0 W/m² 14,6 °C 15,7 °C 1,7 km/h (1 Bft)
08.06.2023 05:00 21,8 °C 15,5 °C 58 % 94 % 1016,9 hPa 0,0 l/m² 1,3 km/h (1 Bft) W 0,00 h 14 W/m² 14,6 °C 15,5 °C 3,2 km/h (1 Bft)
08.06.2023 06:00 21,8 °C 15,8 °C 58 % 94 % 1016,7 hPa 0,2 l/m² 1,2 km/h (1 Bft) W-NW 0,07 h 37 W/m² 14,8 °C 15,8 °C 3,9 km/h (1 Bft)
08.06.2023 07:00 21,8 °C 16,4 °C 58 % 93 % 1016,7 hPa 0,0 l/m² 1,3 km/h (1 Bft) W 0,80 h 59 W/m² 15,3 °C 16,4 °C 3,3 km/h (1 Bft)
08.06.2023 08:00 21,8 °C 17,1 °C 58 % 91 % 1017,0 hPa 0,0 l/m² 2,1 km/h (1 Bft) NW 0,97 h 107 W/m² 15,5 °C 17,1 °C 4,9 km/h (1 Bft)
08.06.2023 09:00 21,8 °C 17,9 °C 57 % 88 % 1017,1 hPa 0,0 l/m² 2,4 km/h (1 Bft) W 1,00 h 192 W/m² 15,9 °C 17,9 °C 5,2 km/h (1 Bft)
08.06.2023 10:00 21,8 °C 18,4 °C 57 % 86 % 1017,1 hPa 0,0 l/m² 4,3 km/h (1 Bft) NW 1,00 h 177 W/m² 16,0 °C 18,3 °C 7,9 km/h (2 Bft)
08.06.2023 11:00 21,8 °C 19,3 °C 57 % 81 % 1017,2 hPa 0,0 l/m² 1,9 km/h (1 Bft) W-SW 1,00 h 254 W/m² 16,0 °C 19,3 °C 3,7 km/h (1 Bft)
08.06.2023 12:00 22,0 °C 20,9 °C 56 % 70 % 1016,9 hPa 0,0 l/m² 3,2 km/h (1 Bft) W-SW 1,00 h 373 W/m² 15,2 °C 20,9 °C 5,8 km/h (2 Bft)
08.06.2023 13:00 22,0 °C 21,6 °C 56 % 68 % 1016,2 hPa 0,0 l/m² 5,1 km/h (1 Bft) NW 1,00 h 286 W/m² 15,5 °C 21,5 °C 8,9 km/h (2 Bft)
08.06.2023 14:00 22,1 °C 23,4 °C 56 % 63 % 1015,8 hPa 0,0 l/m² 3,8 km/h (1 Bft) N 1,00 h 590 W/m² 16,0 °C 23,4 °C 6,6 km/h (2 Bft)
08.06.2023 15:00 22,4 °C 25,9 °C 56 % 52 % 1015,2 hPa 0,0 l/m² 3,5 km/h (1 Bft) N-NW 1,00 h 653 W/m² 15,2 °C 25,8 °C 6,6 km/h (2 Bft)
08.06.2023 16:00 22,6 °C 26,0 °C 57 % 51 % 1014,8 hPa 0,0 l/m² 2,1 km/h (1 Bft) O 1,00 h 364 W/m² 15,0 °C 26,0 °C 3,6 km/h (1 Bft)
08.06.2023 17:00 22,5 °C 23,9 °C 56 % 54 % 1014,8 hPa 4,8 l/m² 13,3 km/h (3 Bft) O 1,00 h 211 W/m² 13,8 °C 22,2 °C 20,7 km/h (4 Bft)
08.06.2023 18:00 22,4 °C 17,6 °C 57 % 85 % 1015,1 hPa 2,2 l/m² 6,2 km/h (2 Bft) O-NO 1,00 h 88 W/m² 15,0 °C 17,1 °C 9,2 km/h (2 Bft)
08.06.2023 19:00 22,4 °C 19,0 °C 58 % 82 % 1014,8 hPa 0,0 l/m² 3,3 km/h (1 Bft) SO 1,00 h 125 W/m² 15,9 °C 19,0 °C 5,4 km/h (2 Bft)
08.06.2023 20:00 22,3 °C 18,8 °C 58 % 83 % 1014,3 hPa 0,0 l/m² 1,5 km/h (1 Bft) W-SW 0,18 h 30 W/m² 15,9 °C 18,8 °C 2,8 km/h (1 Bft)
08.06.2023 21:00 22,3 °C 17,8 °C 59 % 85 % 1014,8 hPa 0,0 l/m² 3,3 km/h (1 Bft) W-SW 0,00 h 6 W/m² 15,3 °C 17,4 °C 5,5 km/h (2 Bft)
08.06.2023 22:00 22,3 °C 16,6 °C 59 % 85 % 1015,3 hPa 0,0 l/m² 1,1 km/h (1 Bft) SW 0,00 h 0 W/m² 14,1 °C 16,6 °C 2,4 km/h (1 Bft)
08.06.2023 23:00 22,2 °C 14,9 °C 59 % 90 % 1015,4 hPa 0,0 l/m² 0,6 km/h (0 Bft) SW 0,00 h 0 W/m² 13,4 °C 14,9 °C 1,5 km/h (1 Bft)
09.06.2023 00:00 22,1 °C 15,6 °C 59 % 87 % 1015,4 hPa 0,0 l/m² 3,2 km/h (1 Bft) S-SW 0,00 h 0 W/m² 13,4 °C 15,6 °C 5,9 km/h (2 Bft)
09.06.2023 01:00 22,1 °C 15,0 °C 59 % 89 % 1015,3 hPa 0,0 l/m² 2,0 km/h (1 Bft) W 0,00 h 0 W/m² 13,1 °C 15,0 °C 4,1 km/h (1 Bft)
09.06.2023 02:00 22,0 °C 14,2 °C 59 % 90 % 1015,2 hPa 0,0 l/m² 1,1 km/h (1 Bft) W 0,00 h 0 W/m² 12,7 °C 14,2 °C 2,5 km/h (1 Bft)
09.06.2023 03:00 21,9 °C 13,2 °C 58 % 92 % 1015,1 hPa 0,0 l/m² 0,4 km/h (0 Bft) W 0,00 h 0 W/m² 12,0 °C 13,2 °C 1,6 km/h (1 Bft)
09.06.2023 04:00 21,9 °C 12,8 °C 58 % 93 % 1015,1 hPa 0,0 l/m² 0,5 km/h (0 Bft) W 0,00 h 0 W/m² 11,6 °C 12,8 °C 1,8 km/h (1 Bft)
09.06.2023 05:00 21,9 °C 12,6 °C 58 % 94 % 1015,3 hPa 0,0 l/m² 0,2 km/h (0 Bft) W 0,00 h 15 W/m² 11,6 °C 12,6 °C 0,7 km/h (0 Bft)
09.06.2023 06:00 21,9 °C 13,9 °C 59 % 94 % 1015,6 hPa 0,0 l/m² 0,5 km/h (0 Bft) W 0,45 h 52 W/m² 12,9 °C 13,9 °C 1,4 km/h (1 Bft)
09.06.2023 07:00 21,9 °C 14,9 °C 58 % 92 % 1015,6 hPa 0,0 l/m² 0,3 km/h (0 Bft) W 0,55 h 57 W/m² 13,7 °C 14,9 °C 1,1 km/h (0 Bft)
09.06.2023 08:00 21,8 °C 17,0 °C 58 % 89 % 1015,7 hPa 0,0 l/m² 1,4 km/h (1 Bft) W-SW 1,00 h 295 W/m² 15,1 °C 17,0 °C 3,3 km/h (1 Bft)
09.06.2023 09:00 21,9 °C 21,4 °C 58 % 66 % 1015,8 hPa 0,0 l/m² 7,6 km/h (2 Bft) N-NW 1,00 h 594 W/m² 14,7 °C 20,8 °C 11,9 km/h (2 Bft)
09.06.2023 10:00 22,0 °C 23,1 °C 57 % 59 % 1015,9 hPa 0,0 l/m² 7,8 km/h (2 Bft) N-NO 1,00 h 677 W/m² 14,5 °C 22,6 °C 13,0 km/h (3 Bft)
09.06.2023 11:00 22,1 °C 25,2 °C 57 % 50 % 1015,8 hPa 0,0 l/m² 8,6 km/h (2 Bft) N 1,00 h 819 W/m² 14,1 °C 24,7 °C 13,6 km/h (3 Bft)
09.06.2023 12:00 22,2 °C 26,7 °C 56 % 45 % 1015,4 hPa 0,0 l/m² 10,5 km/h (2 Bft) N 1,00 h 873 W/m² 13,7 °C 26,0 °C 17,1 km/h (3 Bft)
09.06.2023 13:00 22,3 °C 28,1 °C 56 % 42 % 1014,9 hPa 0,0 l/m² 9,3 km/h (2 Bft) NO 1,00 h 906 W/m² 13,9 °C 27,7 °C 14,8 km/h (3 Bft)
09.06.2023 14:00 22,4 °C 28,6 °C 56 % 40 % 1014,3 hPa 0,0 l/m² 7,4 km/h (2 Bft) O 1,00 h 829 W/m² 13,7 °C 28,4 °C 12,1 km/h (2 Bft)
09.06.2023 15:00 22,6 °C 28,0 °C 57 % 41 % 1014,1 hPa 0,0 l/m² 6,2 km/h (2 Bft) O 1,00 h 477 W/m² 13,4 °C 27,8 °C 10,4 km/h (2 Bft)
09.06.2023 16:00 22,6 °C 27,9 °C 57 % 41 % 1013,7 hPa 0,0 l/m² 6,2 km/h (2 Bft) N 1,00 h 456 W/m² 13,2 °C 27,7 °C 10,6 km/h (2 Bft)
09.06.2023 17:00 22,5 °C 26,8 °C 57 % 45 % 1013,5 hPa 0,0 l/m² 9,3 km/h (2 Bft) N-NW 1,00 h 259 W/m² 13,8 °C 26,3 °C 14,2 km/h (3 Bft)
09.06.2023 18:00 22,6 °C 26,4 °C 56 % 46 % 1013,4 hPa 0,0 l/m² 8,7 km/h (2 Bft) N-NW 1,00 h 181 W/m² 13,7 °C 26,0 °C 13,7 km/h (3 Bft)
09.06.2023 19:00 22,5 °C 26,3 °C 56 % 44 % 1013,5 hPa 0,0 l/m² 6,3 km/h (2 Bft) N 1,00 h 80 W/m² 13,2 °C 26,1 °C 10,2 km/h (2 Bft)
09.06.2023 20:00 22,4 °C 24,8 °C 57 % 47 % 1013,8 hPa 0,0 l/m² 5,8 km/h (2 Bft) N 0,13 h 38 W/m² 12,6 °C 24,7 °C 8,8 km/h (2 Bft)
09.06.2023 21:00 22,7 °C 22,4 °C 58 % 51 % 1014,1 hPa 0,0 l/m² 7,7 km/h (2 Bft) N 0,00 h 11 W/m² 11,6 °C 21,9 °C 11,5 km/h (2 Bft)
09.06.2023 22:00 22,5 °C 20,7 °C 59 % 53 % 1014,5 hPa 0,0 l/m² 2,8 km/h (1 Bft) N 0,00 h 0 W/m² 10,8 °C 20,7 °C 5,2 km/h (1 Bft)
09.06.2023 23:00 22,3 °C 19,5 °C 59 % 57 % 1015,0 hPa 0,0 l/m² 4,5 km/h (1 Bft) N 0,00 h 0 W/m² 10,9 °C 19,5 °C 8,1 km/h (2 Bft)
10.06.2023 00:00 22,2 °C 16,3 °C 59 % 73 % 1015,4 hPa 0,0 l/m² 2,9 km/h (1 Bft) W-SW 0,00 h 0 W/m² 11,4 °C 16,3 °C 5,2 km/h (1 Bft)
10.06.2023 01:00 22,2 °C 15,9 °C 59 % 76 % 1015,6 hPa 0,0 l/m² 2,8 km/h (1 Bft) NW 0,00 h 0 W/m² 11,6 °C 15,9 °C 5,4 km/h (2 Bft)
10.06.2023 02:00 22,1 °C 14,9 °C 58 % 81 % 1015,7 hPa 0,0 l/m² 2,1 km/h (1 Bft) NW 0,00 h 0 W/m² 11,6 °C 14,9 °C 4,7 km/h (1 Bft)
10.06.2023 03:00 22,1 °C 14,6 °C 59 % 83 % 1015,8 hPa 0,0 l/m² 2,4 km/h (1 Bft) NW 0,00 h 0 W/m² 11,7 °C 14,6 °C 5,3 km/h (1 Bft)
10.06.2023 04:00 22,0 °C 13,3 °C 59 % 88 % 1016,0 hPa 0,0 l/m² 1,7 km/h (1 Bft) W-NW 0,00 h 0 W/m² 11,3 °C 13,3 °C 4,6 km/h (1 Bft)
10.06.2023 05:00 21,9 °C 12,8 °C 59 % 90 % 1016,2 hPa 0,0 l/m² 1,7 km/h (1 Bft) NW 0,00 h 21 W/m² 11,3 °C 12,8 °C 4,0 km/h (1 Bft)
10.06.2023 06:00 21,9 °C 13,4 °C 58 % 91 % 1016,6 hPa 0,0 l/m² 3,4 km/h (1 Bft) N-NW 0,93 h 112 W/m² 11,9 °C 13,2 °C 6,9 km/h (2 Bft)
10.06.2023 07:00 21,8 °C 14,8 °C 59 % 87 % 1016,9 hPa 0,0 l/m² 7,1 km/h (2 Bft) N-NW 1,00 h 218 W/m² 12,7 °C 14,3 °C 12,6 km/h (2 Bft)
10.06.2023 08:00 21,9 °C 16,2 °C 60 % 84 % 1017,0 hPa 0,0 l/m² 7,4 km/h (2 Bft) N-NW 1,00 h 381 W/m² 13,4 °C 15,4 °C 12,2 km/h (2 Bft)
10.06.2023 09:00 22,3 °C 18,3 °C 60 % 79 % 1017,3 hPa 0,0 l/m² 7,4 km/h (2 Bft) N-NW 1,00 h 587 W/m² 14,6 °C 17,8 °C 11,6 km/h (2 Bft)
10.06.2023 10:00 22,2 °C 21,0 °C 58 % 73 % 1017,2 hPa 0,0 l/m² 5,9 km/h (2 Bft) N-NW 1,00 h 722 W/m² 15,9 °C 20,8 °C 10,0 km/h (2 Bft)
10.06.2023 11:00 22,1 °C 23,6 °C 59 % 65 % 1017,0 hPa 0,0 l/m² 5,0 km/h (1 Bft) N-NO 1,00 h 819 W/m² 16,7 °C 23,5 °C 8,7 km/h (2 Bft)
10.06.2023 12:00 22,2 °C 25,8 °C 59 % 59 % 1016,8 hPa 0,0 l/m² 8,0 km/h (2 Bft) O 0,98 h 877 W/m² 17,1 °C 25,4 °C 13,1 km/h (3 Bft)
10.06.2023 13:00 22,4 °C 27,0 °C 59 % 55 % 1016,5 hPa 0,0 l/m² 9,0 km/h (2 Bft) O-NO 1,00 h 901 W/m² 17,1 °C 26,5 °C 14,8 km/h (3 Bft)
10.06.2023 14:00 22,6 °C 27,7 °C 60 % 52 % 1015,9 hPa 0,0 l/m² 6,5 km/h (2 Bft) NO 1,02 h 743 W/m² 16,8 °C 27,5 °C 12,2 km/h (2 Bft)
10.06.2023 15:00 22,6 °C 27,9 °C 59 % 50 % 1015,5 hPa 0,0 l/m² 13,3 km/h (3 Bft) O-NO 1,00 h 769 W/m² 16,6 °C 27,1 °C 20,9 km/h (4 Bft)
10.06.2023 16:00 22,8 °C 23,5 °C 60 % 61 % 1016,3 hPa 0,2 l/m² 16,0 km/h (3 Bft) NO 1,00 h 341 W/m² 15,5 °C 21,4 °C 26,8 km/h (4 Bft)
10.06.2023 17:00 22,7 °C 19,7 °C 60 % 80 % 1016,3 hPa 0,4 l/m² 6,0 km/h (2 Bft) S 0,67 h 68 W/m² 16,0 °C 19,0 °C 10,3 km/h (2 Bft)
10.06.2023 18:00 22,7 °C 20,8 °C 60 % 80 % 1016,1 hPa 0,0 l/m² 1,5 km/h (1 Bft) S 0,98 h 119 W/m² 17,2 °C 20,7 °C 2,9 km/h (1 Bft)
10.06.2023 19:00 22,6 °C 21,7 °C 59 % 78 % 1016,2 hPa 0,0 l/m² 2,4 km/h (1 Bft) W-NW 0,98 h 103 W/m² 17,7 °C 21,6 °C 5,1 km/h (1 Bft)
10.06.2023 20:00 22,7 °C 20,5 °C 61 % 79 % 1016,6 hPa 0,0 l/m² 2,8 km/h (1 Bft) W 0,00 h 27 W/m² 16,8 °C 20,5 °C 5,4 km/h (2 Bft)
10.06.2023 21:00 22,8 °C 17,9 °C 61 % 88 % 1016,9 hPa 0,0 l/m² 1,5 km/h (1 Bft) SW 0,00 h 8 W/m² 15,8 °C 17,9 °C 3,2 km/h (1 Bft)
10.06.2023 22:00 22,9 °C 16,7 °C 61 % 89 % 1017,4 hPa 0,0 l/m² 0,4 km/h (0 Bft) W-SW 0,00 h 0 W/m² 15,0 °C 16,7 °C 1,1 km/h (1 Bft)
10.06.2023 23:00 22,6 °C 14,9 °C 62 % 92 % 1017,4 hPa 0,0 l/m² 0,2 km/h (0 Bft) N 0,00 h 0 W/m² 13,6 °C 14,9 °C 0,4 km/h (0 Bft)
11.06.2023 00:00 22,4 °C 14,1 °C 61 % 93 % 1017,5 hPa 0,0 l/m² 0,0 km/h (0 Bft) N 0,00 h 0 W/m² 13,0 °C 14,1 °C 0,0 km/h (0 Bft)
11.06.2023 01:00 22,3 °C 14,4 °C 61 % 93 % 1017,7 hPa 0,0 l/m² 0,2 km/h (0 Bft) N 0,00 h 0 W/m² 13,2 °C 14,4 °C 0,7 km/h (0 Bft)
11.06.2023 02:00 22,2 °C 13,2 °C 61 % 93 % 1018,0 hPa 0,0 l/m² 0,0 km/h (0 Bft) N 0,00 h 0 W/m² 12,1 °C 13,2 °C 0,0 km/h (0 Bft)
11.06.2023 03:00 22,2 °C 12,1 °C 61 % 93 % 1018,4 hPa 0,0 l/m² 0,0 km/h (0 Bft) N 0,00 h 0 W/m² 11,0 °C 12,1 °C 0,0 km/h (0 Bft)
11.06.2023 04:00 22,1 °C 11,0 °C 61 % 94 % 1018,8 hPa 0,0 l/m² 0,6 km/h (0 Bft) N 0,00 h 5 W/m² 10,0 °C 11,0 °C 1,1 km/h (1 Bft)
11.06.2023 05:00 22,1 °C 10,3 °C 61 % 94 % 1019,0 hPa 0,0 l/m² 0,1 km/h (0 Bft) N 0,00 h 23 W/m² 9,4 °C 10,3 °C 0,3 km/h (0 Bft)
11.06.2023 06:00 22,0 °C 11,2 °C 60 % 93 % 1019,2 hPa 0,0 l/m² 0,0 km/h (0 Bft) N 0,95 h 81 W/m² 10,1 °C 11,2 °C 0,1 km/h (0 Bft)
11.06.2023 07:00 21,9 °C 14,5 °C 60 % 91 % 1019,4 hPa 0,0 l/m² 0,0 km/h (0 Bft) N 1,00 h 237 W/m² 13,0 °C 14,5 °C 0,0 km/h (0 Bft)
11.06.2023 08:00 22,2 °C 18,6 °C 61 % 73 % 1019,5 hPa 0,0 l/m² 4,9 km/h (1 Bft) O 0,98 h 403 W/m² 13,5 °C 18,4 °C 8,0 km/h (2 Bft)
11.06.2023 09:00 22,3 °C 21,0 °C 57 % 61 % 1019,5 hPa 0,0 l/m² 5,5 km/h (2 Bft) O 1,00 h 623 W/m² 13,1 °C 20,7 °C 9,4 km/h (2 Bft)
11.06.2023 10:00 22,3 °C 23,3 °C 57 % 54 % 1019,4 hPa 0,0 l/m² 5,5 km/h (2 Bft) NO 1,00 h 760 W/m² 13,5 °C 23,1 °C 10,2 km/h (2 Bft)
11.06.2023 11:00 22,3 °C 24,8 °C 58 % 49 % 1019,3 hPa 0,0 l/m² 8,9 km/h (2 Bft) NO 1,00 h 859 W/m² 13,2 °C 24,2 °C 15,3 km/h (3 Bft)
11.06.2023 12:00 22,4 °C 26,6 °C 58 % 40 % 1019,2 hPa 0,0 l/m² 11,4 km/h (2 Bft) O 1,00 h 914 W/m² 11,8 °C 25,8 °C 17,9 km/h (3 Bft)
11.06.2023 13:00 22,4 °C 27,3 °C 58 % 35 % 1018,8 hPa 0,0 l/m² 12,8 km/h (3 Bft) O 1,02 h 922 W/m² 10,7 °C 26,4 °C 20,0 km/h (4 Bft)
11.06.2023 14:00 22,6 °C 27,6 °C 58 % 34 % 1018,5 hPa 0,0 l/m² 10,6 km/h (2 Bft) O-NO 0,98 h 882 W/m² 10,2 °C 27,0 °C 17,5 km/h (3 Bft)
11.06.2023 15:00 22,6 °C 27,9 °C 58 % 36 % 1018,1 hPa 0,0 l/m² 9,0 km/h (2 Bft) O 1,02 h 794 W/m² 11,3 °C 27,5 °C 15,1 km/h (3 Bft)
11.06.2023 16:00 22,7 °C 27,8 °C 58 % 38 % 1017,8 hPa 0,0 l/m² 8,4 km/h (2 Bft) O-NO 1,00 h 638 W/m² 12,2 °C 27,4 °C 15,1 km/h (3 Bft)
11.06.2023 17:00 22,7 °C 27,5 °C 57 % 40 % 1017,5 hPa 0,0 l/m² 8,2 km/h (2 Bft) O 0,98 h 496 W/m² 12,5 °C 27,1 °C 13,3 km/h (3 Bft)
11.06.2023 18:00 22,8 °C 26,7 °C 58 % 40 % 1017,3 hPa 0,0 l/m² 6,2 km/h (2 Bft) O 1,02 h 267 W/m² 11,8 °C 26,5 °C 10,2 km/h (2 Bft)
11.06.2023 19:00 22,9 °C 25,4 °C 54 % 44 % 1017,1 hPa 0,0 l/m² 5,9 km/h (2 Bft) O 0,75 h 56 W/m² 12,1 °C 25,3 °C 9,5 km/h (2 Bft)
11.06.2023 20:00 23,0 °C 23,4 °C 56 % 54 % 1017,0 hPa 0,0 l/m² 2,7 km/h (1 Bft) O-NO 0,00 h 33 W/m² 13,5 °C 23,4 °C 4,6 km/h (1 Bft)
11.06.2023 21:00 23,1 °C 19,8 °C 57 % 71 % 1017,1 hPa 0,0 l/m² 0,1 km/h (0 Bft) O-NO 0,00 h 8 W/m² 14,4 °C 19,8 °C 0,4 km/h (0 Bft)
11.06.2023 22:00 23,1 °C 16,8 °C 57 % 84 % 1017,6 hPa 0,0 l/m² 0,0 km/h (0 Bft) O-NO 0,00 h 0 W/m² 14,1 °C 16,8 °C 0,0 km/h (0 Bft)
11.06.2023 23:00 22,9 °C 15,2 °C 58 % 87 % 1017,8 hPa 0,0 l/m² 0,2 km/h (0 Bft) O-NO 0,00 h 0 W/m² 13,0 °C 15,2 °C 0,4 km/h (0 Bft)
Min-Datum _ 07.06.23 05.06.23 05.06.23 05.06.23 09.06.23 - 11.06.23 - - - 05.06.23 05.06.23 11.06.23
_ Min-Zeit 07:00 04:37 19:00 16:25 18:07 - 23:00 - - - 04:37 04:37 23:00
Minimum _ 20,8 °C 4,5 °C 43 % 27 % 1013,3 hPa - 0,0 km/h (0 Bft) - - - 2,7 °C 4,5 °C 0,0 km/h (0 Bft)
Max-Datum _ 11.06.23 09.06.23 11.06.23 07.06.23 05.06.23 08.06.23 08.06.23 - 11.06.23 05.06.23 10.06.23 09.06.23 08.06.23
_ Max-Zeit 22:00 15:34 08:26 04:00 09:00 17:55 17:32 - 08:10 12:38 15:44 15:00 17:27
Maximum _ 23,1 °C 29,4 °C 62 % 96 % 1021,4 hPa 4,8 l/m² 31,1 km/h
O (5 Bft)
- 0,10 h 1158 W/m² 19,4 °C 29,2 °C 49,9 km/h
O (7 Bft)
Durchschnitt _ 22,0 °C 18,8 °C 56 % 72 % 1017,5 hPa #12,4 l/m² 3,8 km/h (1 Bft) N #90:22 h 239 W/m² 12,7 °C 18,6 °C 6,7 km/h (2 Bft)
© 2009 Mathias Hoßbach